sensor_id;sensor_type;location;lat;lon;timestamp;P1;durP1;ratioP1;P2;durP2;ratioP2
823;SDS011;373;49.342;8.146;2023-05-07T00:01:41;1.58;;;1.45;;
823;SDS011;373;49.342;8.146;2023-05-07T00:04:08;1.73;;;1.42;;
823;SDS011;373;49.342;8.146;2023-05-07T00:06:38;2.42;;;1.20;;
823;SDS011;373;49.342;8.146;2023-05-07T00:09:05;2.47;;;1.20;;
823;SDS011;373;49.342;8.146;2023-05-07T00:11:32;1.50;;;1.40;;
823;SDS011;373;49.342;8.146;2023-05-07T00:14:00;2.28;;;1.50;;
823;SDS011;373;49.342;8.146;2023-05-07T00:16:27;1.50;;;1.30;;
823;SDS011;373;49.342;8.146;2023-05-07T00:18:54;2.95;;;1.30;;
823;SDS011;373;49.342;8.146;2023-05-07T00:21:21;2.10;;;1.50;;
823;SDS011;373;49.342;8.146;2023-05-07T00:23:55;1.73;;;1.60;;
823;SDS011;373;49.342;8.146;2023-05-07T00:26:22;2.10;;;1.60;;
823;SDS011;373;49.342;8.146;2023-05-07T00:28:50;1.42;;;1.33;;
823;SDS011;373;49.342;8.146;2023-05-07T00:31:17;1.73;;;1.35;;
823;SDS011;373;49.342;8.146;2023-05-07T00:33:44;1.98;;;1.60;;
823;SDS011;373;49.342;8.146;2023-05-07T00:36:12;2.90;;;1.55;;
823;SDS011;373;49.342;8.146;2023-05-07T00:38:43;1.67;;;1.35;;
823;SDS011;373;49.342;8.146;2023-05-07T00:41:11;1.83;;;1.58;;
823;SDS011;373;49.342;8.146;2023-05-07T00:43:38;3.22;;;1.65;;
823;SDS011;373;49.342;8.146;2023-05-07T00:46:05;1.30;;;1.20;;
823;SDS011;373;49.342;8.146;2023-05-07T00:48:33;1.45;;;1.35;;
823;SDS011;373;49.342;8.146;2023-05-07T00:51:00;3.92;;;1.60;;
823;SDS011;373;49.342;8.146;2023-05-07T00:53:27;2.67;;;1.52;;
823;SDS011;373;49.342;8.146;2023-05-07T00:55:54;1.55;;;1.45;;
823;SDS011;373;49.342;8.146;2023-05-07T00:58:23;1.67;;;1.40;;
823;SDS011;373;49.342;8.146;2023-05-07T01:00:51;2.35;;;1.92;;
823;SDS011;373;49.342;8.146;2023-05-07T01:03:18;3.65;;;1.35;;
823;SDS011;373;49.342;8.146;2023-05-07T01:05:48;1.45;;;1.23;;
823;SDS011;373;49.342;8.146;2023-05-07T01:08:17;1.50;;;1.40;;
823;SDS011;373;49.342;8.146;2023-05-07T01:10:45;2.13;;;1.50;;
823;SDS011;373;49.342;8.146;2023-05-07T01:13:13;1.77;;;1.55;;
823;SDS011;373;49.342;8.146;2023-05-07T01:15:44;2.28;;;1.60;;
823;SDS011;373;49.342;8.146;2023-05-07T01:18:12;2.92;;;2.10;;
823;SDS011;373;49.342;8.146;2023-05-07T01:20:39;2.30;;;1.48;;
823;SDS011;373;49.342;8.146;2023-05-07T01:23:08;1.60;;;1.50;;
823;SDS011;373;49.342;8.146;2023-05-07T01:25:37;1.63;;;1.52;;
823;SDS011;373;49.342;8.146;2023-05-07T01:28:05;2.97;;;1.45;;
823;SDS011;373;49.342;8.146;2023-05-07T01:30:34;2.92;;;1.63;;
823;SDS011;373;49.342;8.146;2023-05-07T01:33:06;1.42;;;1.33;;
823;SDS011;373;49.342;8.146;2023-05-07T01:35:37;1.73;;;1.63;;
823;SDS011;373;49.342;8.146;2023-05-07T01:38:06;1.60;;;1.50;;
823;SDS011;373;49.342;8.146;2023-05-07T01:40:36;2.72;;;1.77;;
823;SDS011;373;49.342;8.146;2023-05-07T01:43:06;1.52;;;1.35;;
823;SDS011;373;49.342;8.146;2023-05-07T01:45:35;2.78;;;1.70;;
823;SDS011;373;49.342;8.146;2023-05-07T01:48:02;1.85;;;1.75;;
823;SDS011;373;49.342;8.146;2023-05-07T01:50:30;2.20;;;1.90;;
823;SDS011;373;49.342;8.146;2023-05-07T01:52:58;3.45;;;1.95;;
823;SDS011;373;49.342;8.146;2023-05-07T01:55:27;1.60;;;1.50;;
823;SDS011;373;49.342;8.146;2023-05-07T01:57:54;1.98;;;1.60;;
823;SDS011;373;49.342;8.146;2023-05-07T02:00:21;1.95;;;1.73;;
823;SDS011;373;49.342;8.146;2023-05-07T02:02:49;3.80;;;1.60;;
823;SDS011;373;49.342;8.146;2023-05-07T02:05:50;1.67;;;1.58;;
823;SDS011;373;49.342;8.146;2023-05-07T02:08:27;2.50;;;1.77;;
823;SDS011;373;49.342;8.146;2023-05-07T02:10:57;1.52;;;1.45;;
823;SDS011;373;49.342;8.146;2023-05-07T02:13:25;3.60;;;1.98;;
823;SDS011;373;49.342;8.146;2023-05-07T02:15:53;1.67;;;1.58;;
823;SDS011;373;49.342;8.146;2023-05-07T02:18:21;1.70;;;1.60;;
823;SDS011;373;49.342;8.146;2023-05-07T02:20:48;2.05;;;1.85;;
823;SDS011;373;49.342;8.146;2023-05-07T02:23:15;1.40;;;1.30;;
823;SDS011;373;49.342;8.146;2023-05-07T02:25:42;1.98;;;1.58;;
823;SDS011;373;49.342;8.146;2023-05-07T02:28:12;1.50;;;1.40;;
823;SDS011;373;49.342;8.146;2023-05-07T02:30:52;1.83;;;1.73;;
823;SDS011;373;49.342;8.146;2023-05-07T02:33:20;1.67;;;1.58;;
823;SDS011;373;49.342;8.146;2023-05-07T02:35:47;1.85;;;1.52;;
823;SDS011;373;49.342;8.146;2023-05-07T02:38:15;2.17;;;1.65;;
823;SDS011;373;49.342;8.146;2023-05-07T02:40:43;1.73;;;1.63;;
823;SDS011;373;49.342;8.146;2023-05-07T02:43:11;2.60;;;1.35;;
823;SDS011;373;49.342;8.146;2023-05-07T02:45:42;1.80;;;1.70;;
823;SDS011;373;49.342;8.146;2023-05-07T02:48:10;3.63;;;1.48;;
823;SDS011;373;49.342;8.146;2023-05-07T02:50:37;2.08;;;1.60;;
823;SDS011;373;49.342;8.146;2023-05-07T02:53:04;1.65;;;1.50;;
823;SDS011;373;49.342;8.146;2023-05-07T02:55:31;2.05;;;1.50;;
823;SDS011;373;49.342;8.146;2023-05-07T02:57:59;1.80;;;1.70;;
823;SDS011;373;49.342;8.146;2023-05-07T03:00:27;2.03;;;1.70;;
823;SDS011;373;49.342;8.146;2023-05-07T03:03:06;2.30;;;1.30;;
823;SDS011;373;49.342;8.146;2023-05-07T03:05:33;2.30;;;1.63;;
823;SDS011;373;49.342;8.146;2023-05-07T03:08:00;2.10;;;1.90;;
823;SDS011;373;49.342;8.146;2023-05-07T03:10:28;2.28;;;1.80;;
823;SDS011;373;49.342;8.146;2023-05-07T03:12:55;2.03;;;1.90;;
823;SDS011;373;49.342;8.146;2023-05-07T03:15:22;1.65;;;1.48;;
823;SDS011;373;49.342;8.146;2023-05-07T03:17:50;2.88;;;1.73;;
823;SDS011;373;49.342;8.146;2023-05-07T03:20:18;1.58;;;1.48;;
823;SDS011;373;49.342;8.146;2023-05-07T03:22:45;2.00;;;1.90;;
823;SDS011;373;49.342;8.146;2023-05-07T03:25:13;1.70;;;1.60;;
823;SDS011;373;49.342;8.146;2023-05-07T03:27:40;1.65;;;1.55;;
823;SDS011;373;49.342;8.146;2023-05-07T03:30:08;2.25;;;1.70;;
823;SDS011;373;49.342;8.146;2023-05-07T03:32:35;1.52;;;1.40;;
823;SDS011;373;49.342;8.146;2023-05-07T03:35:07;1.50;;;1.40;;
823;SDS011;373;49.342;8.146;2023-05-07T03:37:35;1.75;;;1.40;;
823;SDS011;373;49.342;8.146;2023-05-07T03:40:03;1.67;;;1.50;;
823;SDS011;373;49.342;8.146;2023-05-07T03:42:40;1.88;;;1.30;;
823;SDS011;373;49.342;8.146;2023-05-07T03:45:08;1.42;;;1.33;;
823;SDS011;373;49.342;8.146;2023-05-07T03:47:38;1.48;;;1.38;;
823;SDS011;373;49.342;8.146;2023-05-07T03:50:09;1.40;;;1.27;;
823;SDS011;373;49.342;8.146;2023-05-07T03:52:36;2.85;;;1.73;;
823;SDS011;373;49.342;8.146;2023-05-07T03:55:05;3.38;;;1.38;;
823;SDS011;373;49.342;8.146;2023-05-07T03:57:35;1.95;;;1.55;;
823;SDS011;373;49.342;8.146;2023-05-07T04:00:03;1.90;;;1.52;;
823;SDS011;373;49.342;8.146;2023-05-07T04:02:45;1.40;;;1.30;;
823;SDS011;373;49.342;8.146;2023-05-07T04:05:16;3.67;;;1.33;;
823;SDS011;373;49.342;8.146;2023-05-07T04:07:46;1.58;;;1.48;;
823;SDS011;373;49.342;8.146;2023-05-07T04:10:18;1.30;;;1.20;;
823;SDS011;373;49.342;8.146;2023-05-07T04:12:47;1.25;;;1.15;;
823;SDS011;373;49.342;8.146;2023-05-07T04:15:18;1.20;;;1.20;;
823;SDS011;373;49.342;8.146;2023-05-07T04:17:46;1.25;;;1.15;;
823;SDS011;373;49.342;8.146;2023-05-07T04:20:16;1.45;;;1.35;;
823;SDS011;373;49.342;8.146;2023-05-07T04:22:48;2.38;;;1.70;;
823;SDS011;373;49.342;8.146;2023-05-07T04:25:15;1.55;;;1.30;;
823;SDS011;373;49.342;8.146;2023-05-07T04:27:43;2.28;;;1.45;;
823;SDS011;373;49.342;8.146;2023-05-07T04:30:12;1.83;;;1.40;;
823;SDS011;373;49.342;8.146;2023-05-07T04:32:39;3.70;;;2.15;;
823;SDS011;373;49.342;8.146;2023-05-07T04:35:07;1.70;;;1.30;;
823;SDS011;373;49.342;8.146;2023-05-07T04:37:36;1.70;;;1.30;;
823;SDS011;373;49.342;8.146;2023-05-07T04:40:04;2.30;;;1.38;;
823;SDS011;373;49.342;8.146;2023-05-07T04:42:32;2.13;;;1.35;;
823;SDS011;373;49.342;8.146;2023-05-07T04:45:01;1.67;;;1.35;;
823;SDS011;373;49.342;8.146;2023-05-07T04:47:31;1.73;;;1.33;;
823;SDS011;373;49.342;8.146;2023-05-07T04:50:00;1.92;;;1.20;;
823;SDS011;373;49.342;8.146;2023-05-07T04:52:27;2.45;;;1.13;;
823;SDS011;373;49.342;8.146;2023-05-07T04:54:56;1.67;;;1.48;;
823;SDS011;373;49.342;8.146;2023-05-07T04:57:26;1.33;;;1.23;;
823;SDS011;373;49.342;8.146;2023-05-07T04:59:53;1.30;;;1.20;;
823;SDS011;373;49.342;8.146;2023-05-07T05:02:20;1.17;;;1.17;;
823;SDS011;373;49.342;8.146;2023-05-07T05:04:47;1.58;;;1.10;;
823;SDS011;373;49.342;8.146;2023-05-07T05:07:14;3.58;;;1.42;;
823;SDS011;373;49.342;8.146;2023-05-07T05:09:44;1.75;;;1.20;;
823;SDS011;373;49.342;8.146;2023-05-07T05:12:13;1.40;;;1.30;;
823;SDS011;373;49.342;8.146;2023-05-07T05:14:40;1.75;;;1.10;;
823;SDS011;373;49.342;8.146;2023-05-07T05:17:09;2.08;;;1.40;;
823;SDS011;373;49.342;8.146;2023-05-07T05:19:36;1.73;;;1.20;;
823;SDS011;373;49.342;8.146;2023-05-07T05:22:03;1.45;;;1.20;;
823;SDS011;373;49.342;8.146;2023-05-07T05:24:31;1.65;;;1.50;;
823;SDS011;373;49.342;8.146;2023-05-07T05:26:59;1.00;;;1.00;;
823;SDS011;373;49.342;8.146;2023-05-07T05:29:29;1.65;;;1.42;;
823;SDS011;373;49.342;8.146;2023-05-07T05:31:57;1.30;;;1.00;;
823;SDS011;373;49.342;8.146;2023-05-07T05:34:25;1.23;;;1.13;;
823;SDS011;373;49.342;8.146;2023-05-07T05:36:53;1.50;;;1.27;;
823;SDS011;373;49.342;8.146;2023-05-07T05:39:20;1.35;;;0.90;;
823;SDS011;373;49.342;8.146;2023-05-07T05:41:48;1.77;;;1.20;;
823;SDS011;373;49.342;8.146;2023-05-07T05:44:16;1.75;;;1.23;;
823;SDS011;373;49.342;8.146;2023-05-07T05:46:45;1.48;;;1.20;;
823;SDS011;373;49.342;8.146;2023-05-07T05:49:12;2.10;;;1.50;;
823;SDS011;373;49.342;8.146;2023-05-07T05:51:40;1.95;;;1.70;;
823;SDS011;373;49.342;8.146;2023-05-07T05:54:07;1.40;;;1.30;;
823;SDS011;373;49.342;8.146;2023-05-07T05:56:34;1.27;;;1.17;;
823;SDS011;373;49.342;8.146;2023-05-07T05:59:02;1.10;;;1.10;;
823;SDS011;373;49.342;8.146;2023-05-07T06:01:30;1.40;;;1.30;;
823;SDS011;373;49.342;8.146;2023-05-07T06:04:02;2.42;;;1.20;;
823;SDS011;373;49.342;8.146;2023-05-07T06:06:29;1.10;;;1.10;;
823;SDS011;373;49.342;8.146;2023-05-07T06:08:57;1.30;;;1.20;;
823;SDS011;373;49.342;8.146;2023-05-07T06:11:31;1.38;;;1.10;;
823;SDS011;373;49.342;8.146;2023-05-07T06:13:58;2.17;;;1.45;;
823;SDS011;373;49.342;8.146;2023-05-07T06:16:26;2.10;;;1.40;;
823;SDS011;373;49.342;8.146;2023-05-07T06:18:54;2.70;;;1.67;;
823;SDS011;373;49.342;8.146;2023-05-07T06:21:22;1.77;;;1.63;;
823;SDS011;373;49.342;8.146;2023-05-07T06:23:49;1.25;;;1.15;;
823;SDS011;373;49.342;8.146;2023-05-07T06:26:17;1.30;;;1.20;;
823;SDS011;373;49.342;8.146;2023-05-07T06:28:47;2.38;;;1.30;;
823;SDS011;373;49.342;8.146;2023-05-07T06:31:16;2.63;;;1.38;;
823;SDS011;373;49.342;8.146;2023-05-07T06:33:51;2.03;;;1.55;;
823;SDS011;373;49.342;8.146;2023-05-07T06:36:18;1.27;;;1.15;;
823;SDS011;373;49.342;8.146;2023-05-07T06:38:47;1.33;;;1.23;;
823;SDS011;373;49.342;8.146;2023-05-07T06:41:15;2.15;;;1.50;;
823;SDS011;373;49.342;8.146;2023-05-07T06:43:43;1.60;;;1.50;;
823;SDS011;373;49.342;8.146;2023-05-07T06:46:42;1.10;;;1.10;;
823;SDS011;373;49.342;8.146;2023-05-07T06:49:11;1.45;;;1.30;;
823;SDS011;373;49.342;8.146;2023-05-07T06:51:40;1.60;;;1.50;;
823;SDS011;373;49.342;8.146;2023-05-07T06:54:08;1.90;;;1.67;;
823;SDS011;373;49.342;8.146;2023-05-07T06:56:37;2.33;;;1.92;;
823;SDS011;373;49.342;8.146;2023-05-07T06:59:05;1.70;;;1.60;;
823;SDS011;373;49.342;8.146;2023-05-07T07:01:37;2.15;;;1.55;;
823;SDS011;373;49.342;8.146;2023-05-07T07:04:06;2.95;;;1.58;;
823;SDS011;373;49.342;8.146;2023-05-07T07:06:33;1.58;;;1.48;;
823;SDS011;373;49.342;8.146;2023-05-07T07:09:03;2.05;;;1.30;;
823;SDS011;373;49.342;8.146;2023-05-07T07:11:32;2.30;;;2.10;;
823;SDS011;373;49.342;8.146;2023-05-07T07:13:59;2.03;;;1.92;;
823;SDS011;373;49.342;8.146;2023-05-07T07:16:29;1.45;;;1.35;;
823;SDS011;373;49.342;8.146;2023-05-07T07:18:56;1.52;;;1.40;;
823;SDS011;373;49.342;8.146;2023-05-07T07:21:23;2.20;;;1.60;;
823;SDS011;373;49.342;8.146;2023-05-07T07:23:51;1.75;;;1.65;;
823;SDS011;373;49.342;8.146;2023-05-07T07:26:19;2.20;;;2.03;;
823;SDS011;373;49.342;8.146;2023-05-07T07:28:48;2.85;;;1.80;;
823;SDS011;373;49.342;8.146;2023-05-07T07:31:19;1.80;;;1.70;;
823;SDS011;373;49.342;8.146;2023-05-07T07:33:49;2.58;;;2.00;;
823;SDS011;373;49.342;8.146;2023-05-07T07:36:17;2.47;;;2.00;;
823;SDS011;373;49.342;8.146;2023-05-07T07:38:44;1.52;;;1.42;;
823;SDS011;373;49.342;8.146;2023-05-07T07:41:11;2.20;;;2.10;;
823;SDS011;373;49.342;8.146;2023-05-07T07:43:39;2.65;;;2.30;;
823;SDS011;373;49.342;8.146;2023-05-07T07:46:07;1.85;;;1.75;;
823;SDS011;373;49.342;8.146;2023-05-07T07:48:35;1.80;;;1.70;;
823;SDS011;373;49.342;8.146;2023-05-07T07:51:03;2.05;;;1.88;;
823;SDS011;373;49.342;8.146;2023-05-07T07:53:31;1.88;;;1.70;;
823;SDS011;373;49.342;8.146;2023-05-07T07:55:59;2.05;;;1.70;;
823;SDS011;373;49.342;8.146;2023-05-07T07:58:30;2.00;;;1.90;;
823;SDS011;373;49.342;8.146;2023-05-07T08:01:01;2.30;;;2.13;;
823;SDS011;373;49.342;8.146;2023-05-07T08:03:30;1.88;;;1.50;;
823;SDS011;373;49.342;8.146;2023-05-07T08:05:59;3.03;;;1.77;;
823;SDS011;373;49.342;8.146;2023-05-07T08:08:26;2.15;;;1.65;;
823;SDS011;373;49.342;8.146;2023-05-07T08:10:54;2.22;;;2.10;;
823;SDS011;373;49.342;8.146;2023-05-07T08:13:30;1.77;;;1.63;;
823;SDS011;373;49.342;8.146;2023-05-07T08:15:58;1.85;;;1.73;;
823;SDS011;373;49.342;8.146;2023-05-07T08:18:25;2.20;;;2.08;;
823;SDS011;373;49.342;8.146;2023-05-07T08:20:56;2.28;;;2.08;;
823;SDS011;373;49.342;8.146;2023-05-07T08:23:25;4.47;;;1.75;;
823;SDS011;373;49.342;8.146;2023-05-07T08:25:53;2.85;;;1.98;;
823;SDS011;373;49.342;8.146;2023-05-07T08:28:21;2.90;;;2.00;;
823;SDS011;373;49.342;8.146;2023-05-07T08:30:50;2.05;;;1.83;;
823;SDS011;373;49.342;8.146;2023-05-07T08:33:17;2.58;;;2.20;;
823;SDS011;373;49.342;8.146;2023-05-07T08:35:45;2.63;;;2.30;;
823;SDS011;373;49.342;8.146;2023-05-07T08:38:15;2.42;;;2.22;;
823;SDS011;373;49.342;8.146;2023-05-07T08:40:42;1.73;;;1.63;;
823;SDS011;373;49.342;8.146;2023-05-07T08:43:15;2.05;;;1.92;;
823;SDS011;373;49.342;8.146;2023-05-07T08:45:45;2.33;;;2.00;;
823;SDS011;373;49.342;8.146;2023-05-07T08:48:18;1.85;;;1.75;;
823;SDS011;373;49.342;8.146;2023-05-07T08:50:57;1.88;;;1.77;;
823;SDS011;373;49.342;8.146;2023-05-07T08:53:26;2.10;;;1.90;;
823;SDS011;373;49.342;8.146;2023-05-07T08:55:54;2.15;;;1.95;;
823;SDS011;373;49.342;8.146;2023-05-07T08:58:22;2.53;;;2.33;;
823;SDS011;373;49.342;8.146;2023-05-07T09:00:49;2.20;;;2.00;;
823;SDS011;373;49.342;8.146;2023-05-07T09:03:20;3.45;;;2.15;;
823;SDS011;373;49.342;8.146;2023-05-07T09:05:50;3.08;;;2.15;;
823;SDS011;373;49.342;8.146;2023-05-07T09:08:19;2.00;;;1.85;;
823;SDS011;373;49.342;8.146;2023-05-07T09:10:53;2.95;;;2.53;;
823;SDS011;373;49.342;8.146;2023-05-07T09:13:22;2.03;;;1.83;;
823;SDS011;373;49.342;8.146;2023-05-07T09:15:50;2.75;;;2.10;;
823;SDS011;373;49.342;8.146;2023-05-07T09:18:18;2.83;;;2.63;;
823;SDS011;373;49.342;8.146;2023-05-07T09:20:47;2.50;;;2.25;;
823;SDS011;373;49.342;8.146;2023-05-07T09:23:17;2.20;;;2.08;;
823;SDS011;373;49.342;8.146;2023-05-07T09:25:44;2.08;;;1.92;;
823;SDS011;373;49.342;8.146;2023-05-07T09:28:23;2.60;;;1.95;;
823;SDS011;373;49.342;8.146;2023-05-07T09:30:51;1.85;;;1.75;;
823;SDS011;373;49.342;8.146;2023-05-07T09:33:20;2.60;;;2.40;;
823;SDS011;373;49.342;8.146;2023-05-07T09:35:51;2.30;;;1.98;;
823;SDS011;373;49.342;8.146;2023-05-07T09:38:19;3.65;;;3.17;;
823;SDS011;373;49.342;8.146;2023-05-07T09:41:01;2.72;;;2.53;;
823;SDS011;373;49.342;8.146;2023-05-07T09:43:33;2.88;;;2.58;;
823;SDS011;373;49.342;8.146;2023-05-07T09:46:03;2.67;;;2.47;;
823;SDS011;373;49.342;8.146;2023-05-07T09:48:38;2.60;;;2.40;;
823;SDS011;373;49.342;8.146;2023-05-07T09:51:10;2.40;;;2.25;;
823;SDS011;373;49.342;8.146;2023-05-07T09:53:43;4.22;;;2.78;;
823;SDS011;373;49.342;8.146;2023-05-07T09:56:14;3.47;;;2.65;;
823;SDS011;373;49.342;8.146;2023-05-07T09:58:43;2.90;;;2.60;;
823;SDS011;373;49.342;8.146;2023-05-07T10:01:13;2.70;;;2.50;;
823;SDS011;373;49.342;8.146;2023-05-07T10:03:41;4.30;;;2.53;;
823;SDS011;373;49.342;8.146;2023-05-07T10:06:11;2.38;;;2.13;;
823;SDS011;373;49.342;8.146;2023-05-07T10:08:39;3.65;;;2.63;;
823;SDS011;373;49.342;8.146;2023-05-07T10:11:07;4.13;;;2.95;;
823;SDS011;373;49.342;8.146;2023-05-07T10:13:36;3.15;;;2.47;;
823;SDS011;373;49.342;8.146;2023-05-07T10:16:08;3.67;;;3.47;;
823;SDS011;373;49.342;8.146;2023-05-07T10:18:41;3.08;;;2.88;;
823;SDS011;373;49.342;8.146;2023-05-07T10:21:16;2.67;;;2.10;;
823;SDS011;373;49.342;8.146;2023-05-07T10:23:49;3.15;;;2.55;;
823;SDS011;373;49.342;8.146;2023-05-07T10:26:18;2.80;;;2.60;;
823;SDS011;373;49.342;8.146;2023-05-07T10:28:49;2.70;;;2.50;;
823;SDS011;373;49.342;8.146;2023-05-07T10:31:27;2.80;;;2.60;;
823;SDS011;373;49.342;8.146;2023-05-07T10:34:12;3.22;;;2.97;;
823;SDS011;373;49.342;8.146;2023-05-07T10:36:44;3.55;;;2.97;;
823;SDS011;373;49.342;8.146;2023-05-07T10:39:11;4.00;;;3.13;;
823;SDS011;373;49.342;8.146;2023-05-07T10:41:40;2.88;;;2.60;;
823;SDS011;373;49.342;8.146;2023-05-07T10:44:08;3.40;;;3.15;;
823;SDS011;373;49.342;8.146;2023-05-07T10:46:38;2.80;;;2.60;;
823;SDS011;373;49.342;8.146;2023-05-07T10:49:19;3.70;;;3.40;;
823;SDS011;373;49.342;8.146;2023-05-07T10:54:37;3.53;;;3.20;;
823;SDS011;373;49.342;8.146;2023-05-07T11:03:13;3.10;;;2.75;;
823;SDS011;373;49.342;8.146;2023-05-07T11:05:46;4.13;;;3.83;;
823;SDS011;373;49.342;8.146;2023-05-07T11:08:20;4.30;;;3.90;;
823;SDS011;373;49.342;8.146;2023-05-07T11:10:59;4.35;;;3.92;;
823;SDS011;373;49.342;8.146;2023-05-07T11:13:47;3.33;;;3.13;;
823;SDS011;373;49.342;8.146;2023-05-07T11:16:32;4.10;;;3.72;;
823;SDS011;373;49.342;8.146;2023-05-07T11:22:35;3.55;;;3.30;;
823;SDS011;373;49.342;8.146;2023-05-07T11:25:17;3.45;;;3.17;;
823;SDS011;373;49.342;8.146;2023-05-07T11:27:48;3.13;;;2.92;;
823;SDS011;373;49.342;8.146;2023-05-07T11:30:16;3.95;;;3.58;;
823;SDS011;373;49.342;8.146;2023-05-07T11:32:47;4.03;;;3.67;;
823;SDS011;373;49.342;8.146;2023-05-07T11:35:17;3.90;;;3.60;;
823;SDS011;373;49.342;8.146;2023-05-07T11:37:49;4.50;;;3.83;;
823;SDS011;373;49.342;8.146;2023-05-07T11:40:17;3.20;;;3.00;;
823;SDS011;373;49.342;8.146;2023-05-07T11:42:44;4.60;;;4.20;;
823;SDS011;373;49.342;8.146;2023-05-07T11:45:11;4.03;;;3.15;;
823;SDS011;373;49.342;8.146;2023-05-07T11:47:49;3.70;;;3.17;;
823;SDS011;373;49.342;8.146;2023-05-07T11:50:17;3.15;;;2.95;;
823;SDS011;373;49.342;8.146;2023-05-07T11:52:50;2.80;;;2.60;;
823;SDS011;373;49.342;8.146;2023-05-07T11:55:18;3.50;;;3.20;;
823;SDS011;373;49.342;8.146;2023-05-07T11:57:45;3.35;;;3.13;;
823;SDS011;373;49.342;8.146;2023-05-07T12:00:15;3.50;;;3.20;;
823;SDS011;373;49.342;8.146;2023-05-07T12:02:43;5.05;;;4.57;;
823;SDS011;373;49.342;8.146;2023-05-07T12:05:11;3.35;;;3.13;;
823;SDS011;373;49.342;8.146;2023-05-07T12:07:40;4.90;;;3.33;;
823;SDS011;373;49.342;8.146;2023-05-07T12:10:07;3.63;;;3.13;;
823;SDS011;373;49.342;8.146;2023-05-07T12:12:40;2.42;;;2.22;;
823;SDS011;373;49.342;8.146;2023-05-07T12:15:08;3.88;;;3.50;;
823;SDS011;373;49.342;8.146;2023-05-07T12:17:36;4.95;;;4.40;;
823;SDS011;373;49.342;8.146;2023-05-07T12:20:04;4.90;;;4.50;;
823;SDS011;373;49.342;8.146;2023-05-07T12:22:32;4.22;;;3.83;;
823;SDS011;373;49.342;8.146;2023-05-07T12:25:01;4.60;;;4.20;;
823;SDS011;373;49.342;8.146;2023-05-07T12:27:28;2.95;;;2.75;;
823;SDS011;373;49.342;8.146;2023-05-07T12:29:56;3.05;;;2.75;;
823;SDS011;373;49.342;8.146;2023-05-07T12:32:24;2.80;;;2.50;;
823;SDS011;373;49.342;8.146;2023-05-07T12:34:51;2.75;;;2.55;;
823;SDS011;373;49.342;8.146;2023-05-07T12:37:22;3.83;;;2.78;;
823;SDS011;373;49.342;8.146;2023-05-07T12:40:04;2.63;;;2.42;;
823;SDS011;373;49.342;8.146;2023-05-07T12:42:32;2.60;;;2.20;;
823;SDS011;373;49.342;8.146;2023-05-07T12:45:07;2.90;;;2.70;;
823;SDS011;373;49.342;8.146;2023-05-07T12:47:36;4.05;;;1.98;;
823;SDS011;373;49.342;8.146;2023-05-07T12:50:05;2.13;;;1.90;;
823;SDS011;373;49.342;8.146;2023-05-07T12:52:33;3.33;;;2.30;;
823;SDS011;373;49.342;8.146;2023-05-07T12:55:05;2.75;;;2.47;;
823;SDS011;373;49.342;8.146;2023-05-07T12:57:37;2.95;;;2.75;;
823;SDS011;373;49.342;8.146;2023-05-07T13:00:06;3.88;;;2.20;;
823;SDS011;373;49.342;8.146;2023-05-07T13:02:36;1.80;;;1.60;;
823;SDS011;373;49.342;8.146;2023-05-07T13:05:05;3.65;;;2.42;;
823;SDS011;373;49.342;8.146;2023-05-07T13:07:32;2.60;;;2.25;;
823;SDS011;373;49.342;8.146;2023-05-07T13:10:00;2.75;;;2.50;;
823;SDS011;373;49.342;8.146;2023-05-07T13:12:28;2.40;;;2.15;;
823;SDS011;373;49.342;8.146;2023-05-07T13:14:55;3.05;;;2.60;;
823;SDS011;373;49.342;8.146;2023-05-07T13:17:23;2.58;;;2.38;;
823;SDS011;373;49.342;8.146;2023-05-07T13:19:50;2.70;;;2.25;;
823;SDS011;373;49.342;8.146;2023-05-07T13:22:17;3.80;;;2.33;;
823;SDS011;373;49.342;8.146;2023-05-07T13:24:44;3.00;;;2.78;;
823;SDS011;373;49.342;8.146;2023-05-07T13:27:12;2.88;;;2.40;;
823;SDS011;373;49.342;8.146;2023-05-07T13:29:42;2.20;;;2.00;;
823;SDS011;373;49.342;8.146;2023-05-07T13:32:09;3.00;;;2.20;;
823;SDS011;373;49.342;8.146;2023-05-07T13:34:36;2.85;;;2.65;;
823;SDS011;373;49.342;8.146;2023-05-07T13:37:03;2.45;;;2.00;;
823;SDS011;373;49.342;8.146;2023-05-07T13:39:30;2.13;;;2.03;;
823;SDS011;373;49.342;8.146;2023-05-07T13:41:57;2.60;;;2.05;;
823;SDS011;373;49.342;8.146;2023-05-07T13:44:24;2.58;;;2.38;;
823;SDS011;373;49.342;8.146;2023-05-07T13:46:53;3.00;;;2.25;;
823;SDS011;373;49.342;8.146;2023-05-07T13:49:20;2.05;;;1.95;;
823;SDS011;373;49.342;8.146;2023-05-07T13:51:48;2.55;;;2.08;;
823;SDS011;373;49.342;8.146;2023-05-07T13:54:15;2.35;;;2.15;;
823;SDS011;373;49.342;8.146;2023-05-07T13:56:42;2.55;;;2.05;;
823;SDS011;373;49.342;8.146;2023-05-07T13:59:09;2.22;;;1.65;;
823;SDS011;373;49.342;8.146;2023-05-07T14:01:37;2.05;;;1.95;;
823;SDS011;373;49.342;8.146;2023-05-07T14:04:06;2.88;;;1.80;;
823;SDS011;373;49.342;8.146;2023-05-07T14:06:33;2.40;;;1.92;;
823;SDS011;373;49.342;8.146;2023-05-07T14:09:00;2.30;;;1.77;;
823;SDS011;373;49.342;8.146;2023-05-07T14:11:27;2.13;;;1.70;;
823;SDS011;373;49.342;8.146;2023-05-07T14:13:55;2.28;;;1.60;;
823;SDS011;373;49.342;8.146;2023-05-07T14:16:26;1.60;;;1.45;;
823;SDS011;373;49.342;8.146;2023-05-07T14:18:53;2.17;;;1.52;;
823;SDS011;373;49.342;8.146;2023-05-07T14:21:21;1.65;;;1.55;;
823;SDS011;373;49.342;8.146;2023-05-07T14:23:49;1.88;;;1.10;;
823;SDS011;373;49.342;8.146;2023-05-07T14:26:16;2.10;;;1.95;;
823;SDS011;373;49.342;8.146;2023-05-07T14:28:44;1.60;;;1.50;;
823;SDS011;373;49.342;8.146;2023-05-07T14:31:12;1.92;;;1.83;;
823;SDS011;373;49.342;8.146;2023-05-07T14:33:39;2.35;;;2.17;;
823;SDS011;373;49.342;8.146;2023-05-07T14:36:06;3.47;;;2.00;;
823;SDS011;373;49.342;8.146;2023-05-07T14:38:34;3.63;;;1.83;;
823;SDS011;373;49.342;8.146;2023-05-07T14:41:01;3.70;;;2.30;;
823;SDS011;373;49.342;8.146;2023-05-07T14:43:29;2.38;;;2.17;;
823;SDS011;373;49.342;8.146;2023-05-07T14:45:56;3.60;;;2.70;;
823;SDS011;373;49.342;8.146;2023-05-07T14:48:23;3.10;;;2.47;;
823;SDS011;373;49.342;8.146;2023-05-07T14:50:50;2.53;;;2.30;;
823;SDS011;373;49.342;8.146;2023-05-07T14:53:17;2.90;;;2.42;;
823;SDS011;373;49.342;8.146;2023-05-07T14:55:46;2.88;;;2.67;;
823;SDS011;373;49.342;8.146;2023-05-07T14:58:13;2.60;;;1.92;;
823;SDS011;373;49.342;8.146;2023-05-07T15:00:41;3.15;;;2.10;;
823;SDS011;373;49.342;8.146;2023-05-07T15:03:08;2.85;;;2.00;;
823;SDS011;373;49.342;8.146;2023-05-07T15:05:39;4.10;;;2.20;;
823;SDS011;373;49.342;8.146;2023-05-07T15:08:06;4.45;;;2.60;;
823;SDS011;373;49.342;8.146;2023-05-07T15:10:34;4.20;;;2.65;;
823;SDS011;373;49.342;8.146;2023-05-07T15:13:07;4.72;;;2.90;;
823;SDS011;373;49.342;8.146;2023-05-07T15:15:34;4.07;;;3.13;;
823;SDS011;373;49.342;8.146;2023-05-07T15:18:02;3.55;;;3.13;;
823;SDS011;373;49.342;8.146;2023-05-07T15:20:29;3.17;;;2.88;;
823;SDS011;373;49.342;8.146;2023-05-07T15:22:57;5.07;;;3.45;;
823;SDS011;373;49.342;8.146;2023-05-07T15:25:24;8.82;;;4.40;;
823;SDS011;373;49.342;8.146;2023-05-07T15:27:51;5.53;;;3.47;;
823;SDS011;373;49.342;8.146;2023-05-07T15:30:20;6.80;;;3.78;;
823;SDS011;373;49.342;8.146;2023-05-07T15:32:47;4.65;;;3.88;;
823;SDS011;373;49.342;8.146;2023-05-07T15:35:15;5.93;;;4.10;;
823;SDS011;373;49.342;8.146;2023-05-07T15:37:47;2.65;;;2.25;;
823;SDS011;373;49.342;8.146;2023-05-07T15:40:14;2.83;;;1.92;;
823;SDS011;373;49.342;8.146;2023-05-07T15:42:41;2.65;;;2.25;;
823;SDS011;373;49.342;8.146;2023-05-07T15:45:09;3.22;;;1.98;;
823;SDS011;373;49.342;8.146;2023-05-07T15:47:38;1.50;;;1.20;;
823;SDS011;373;49.342;8.146;2023-05-07T15:50:06;3.28;;;1.63;;
823;SDS011;373;49.342;8.146;2023-05-07T15:52:33;12.85;;;2.22;;
823;SDS011;373;49.342;8.146;2023-05-07T15:55:01;6.30;;;1.80;;
823;SDS011;373;49.342;8.146;2023-05-07T15:57:28;2.10;;;1.63;;
823;SDS011;373;49.342;8.146;2023-05-07T15:59:56;3.17;;;1.73;;
823;SDS011;373;49.342;8.146;2023-05-07T16:02:24;4.68;;;1.75;;
823;SDS011;373;49.342;8.146;2023-05-07T16:04:52;3.65;;;2.00;;
823;SDS011;373;49.342;8.146;2023-05-07T16:07:19;3.45;;;1.92;;
823;SDS011;373;49.342;8.146;2023-05-07T16:09:47;3.35;;;2.13;;